NOP weather

Public forecast

Using degrees Celsius for public forecast. Weather courtesy of forecast.io.

Current aviation weather report (METAR) for Sinop Airport

Report is more than 6 hours old.

Retrieved 2020/08/12 12:50 UTC (13 hours ago):

LTCM 121250Z 33008KT CAVOK 28/20 Q1013

Closest aviation forecast (TAF) to Sinop Airport

Closest forecast is Amasya Merzifon Airport, 74.1 nm (137.3 km) SSE. Retrieved 2020-08-13 00:03 UTC (2 hours ago):

TAF LTAP 122240Z 1300/1324 VRB02KT CAVOK BECMG 1307/1310 03015KT SCT040 BECMG 1318/1321 VRB02KT